Time;durP1;ratioP1;P1;durP2;ratioP2;P2;SDS_P1;SDS_P2;PMS_P1;PMS_P2;Temp;Humidity;BMP_temperature;BMP_pressure;BME280_temperature;BME280_humidity;BME280_pressure;Samples;Min_cycle;Max_cycle;Signal;HPM_P1;HPM_P2
2021/12/04 00:02:06;;;;;;;1.13;1.13;;;;;;;0.82;87.30;97738.75;4915523;29;20032;-66
2021/12/04 00:04:38;;;;;;;1.05;1.05;;;;;;;0.77;87.14;97725.13;4915955;29;20051;-67
2021/12/04 00:07:06;;;;;;;1.20;1.10;;;;;;;0.84;87.68;97731.13;4910843;29;20055;-68
2021/12/04 00:09:32;;;;;;;0.90;0.88;;;;;;;0.86;87.45;97724.31;4910872;29;20028;-68
2021/12/04 00:12:02;;;;;;;13.95;2.50;;;;;;;0.88;86.87;97722.66;4915929;29;20079;-67
2021/12/04 00:14:29;;;;;;;0.82;0.82;;;;;;;0.85;87.05;97709.88;4916888;29;20031;-67
2021/12/04 00:16:55;;;;;;;0.70;0.70;;;;;;;0.86;86.76;97714.13;4918995;29;20119;-67
2021/12/04 00:19:22;;;;;;;1.30;1.20;;;;;;;0.88;87.06;97709.91;4919273;29;20111;-67
2021/12/04 00:21:48;;;;;;;1.10;1.10;;;;;;;0.90;87.22;97705.63;4919297;29;20411;-67
2021/12/04 00:24:14;;;;;;;1.63;1.52;;;;;;;0.92;87.17;97698.81;4919177;29;20034;-67
2021/12/04 00:26:39;;;;;;;2.33;1.63;;;;;;;0.94;87.65;97692.06;4919019;29;20032;-65
2021/12/04 00:29:05;;;;;;;1.15;1.13;;;;;;;0.98;87.35;97689.50;4919150;29;20087;-65
2021/12/04 00:31:32;;;;;;;0.63;0.63;;;;;;;0.97;87.50;97676.78;4919091;29;20544;-64
2021/12/04 00:33:58;;;;;;;1.67;1.63;;;;;;;1.03;87.49;97674.22;4918954;29;20035;-65
2021/12/04 00:36:34;;;;;;;1.20;1.20;;;;;;;0.97;87.35;97661.47;4916785;29;20603;-65
2021/12/04 00:49:55;;;;;;;1.17;1.15;;;;;;;1.08;86.28;97654.69;4918807;29;20119;-66
2021/12/04 00:52:20;;;;;;;1.30;1.23;;;;;;;1.06;86.91;97656.34;4918760;29;20140;-66
2021/12/04 00:54:46;;;;;;;2.00;1.90;;;;;;;1.09;86.79;97658.91;4918657;29;20115;-66
2021/12/04 00:57:12;;;;;;;1.05;1.05;;;;;;;1.14;86.60;97659.78;4918673;29;20052;-67
2021/12/04 00:59:37;;;;;;;0.88;0.88;;;;;;;1.10;86.83;97658.06;4917338;29;20558;-68
2021/12/04 08:02:01;;;;;;;0.90;0.90;;;;;;;1.26;100.00;97134.28;5194719;23;20044;-74
2021/12/04 08:04:27;;;;;;;2.00;1.80;;;;;;;1.34;100.00;97139.28;4934652;29;20036;-74
2021/12/04 08:06:53;;;;;;;1.52;1.50;;;;;;;1.40;100.00;97146.91;4940165;29;20034;-74
2021/12/04 08:09:18;;;;;;;1.63;1.52;;;;;;;1.62;100.00;97152.66;4946859;29;20046;-73
2021/12/04 08:11:44;;;;;;;1.50;1.48;;;;;;;1.44;100.00;97135.81;4940877;28;20028;-73
2021/12/04 08:14:09;;;;;;;1.02;1.02;;;;;;;1.47;100.00;97137.50;4934704;29;20083;-74
2021/12/04 08:16:36;;;;;;;1.52;1.42;;;;;;;1.47;100.00;97140.06;4934429;29;20023;-73
2021/12/04 08:19:02;;;;;;;1.23;1.23;;;;;;;1.42;100.00;97140.09;4935166;29;20110;-71
2021/12/04 08:21:28;;;;;;;1.08;1.08;;;;;;;1.48;100.00;97139.19;4934478;29;20024;-70
2021/12/04 08:23:53;;;;;;;1.67;1.58;;;;;;;1.48;100.00;97134.09;4934526;29;20027;-70
2021/12/04 08:26:19;;;;;;;0.90;0.90;;;;;;;1.46;100.00;97136.66;4934286;29;20090;-70
2021/12/04 08:28:46;;;;;;;1.63;1.52;;;;;;;1.52;100.00;97131.50;4934524;29;20114;-70
2021/12/04 08:31:11;;;;;;;2.00;1.90;;;;;;;1.50;100.00;97123.00;4934474;29;20039;-70
2021/12/04 08:33:37;;;;;;;0.95;0.95;;;;;;;1.60;100.00;97118.66;4934451;29;20063;-70
2021/12/04 08:36:04;;;;;;;1.77;1.67;;;;;;;1.68;100.00;97116.03;4934178;29;20032;-70
2021/12/04 08:38:31;;;;;;;2.55;2.35;;;;;;;1.71;100.00;97119.41;4930103;29;20449;-70
2021/12/04 08:40:56;;;;;;;1.10;1.10;;;;;;;1.66;100.00;97120.31;4937978;29;20499;-70
2021/12/04 08:43:22;;;;;;;0.73;0.73;;;;;;;1.70;100.00;97110.06;4938153;29;20023;-70
2021/12/04 08:45:48;;;;;;;1.52;1.27;;;;;;;1.72;100.00;97125.34;4937873;29;20083;-70
2021/12/04 08:48:13;;;;;;;1.88;1.77;;;;;;;1.73;100.00;97116.81;4937846;29;20374;-70
2021/12/04 08:50:39;;;;;;;3.05;1.55;;;;;;;1.85;100.00;97120.97;4937863;29;20122;-70
2021/12/04 08:53:05;;;;;;;1.52;1.52;;;;;;;1.74;100.00;97116.84;4936543;29;20062;-70
2021/12/04 08:55:32;;;;;;;0.65;0.65;;;;;;;1.80;100.00;97121.88;4937655;29;20473;-70
2021/12/04 08:57:58;;;;;;;1.73;1.63;;;;;;;1.74;100.00;97115.97;4937659;29;20099;-70
2021/12/04 09:00:29;;;;;;;0.95;0.95;;;;;;;1.80;100.00;97111.66;4937627;29;20024;-74
2021/12/04 09:02:55;;;;;;;3.28;2.78;;;;;;;1.85;100.00;97113.31;4937710;29;20023;-70
2021/12/04 09:05:23;;;;;;;1.10;1.10;;;;;;;1.84;100.00;97109.03;4937581;29;20035;-71
2021/12/04 09:07:49;;;;;;;2.40;2.30;;;;;;;1.92;100.00;97109.81;4927211;29;20020;-71
2021/12/04 09:10:16;;;;;;;1.00;1.00;;;;;;;1.91;100.00;97103.03;4937385;29;20035;-72
2021/12/04 09:12:43;;;;;;;3.05;1.42;;;;;;;1.89;100.00;97099.66;4937508;29;20023;-70
2021/12/04 09:15:12;;;;;;;1.52;1.38;;;;;;;1.98;100.00;97107.19;4937445;29;20031;-71
2021/12/04 09:17:37;;;;;;;2.50;2.30;;;;;;;1.99;100.00;97111.47;4937315;29;20079;-73
2021/12/04 09:20:05;;;;;;;2.33;2.22;;;;;;;2.06;100.00;97105.41;4937333;29;20480;-72
2021/12/04 09:22:33;;;;;;;1.98;1.88;;;;;;;2.02;100.00;97101.19;4937151;29;20392;-72
2021/12/04 09:25:00;;;;;;;4.15;2.05;;;;;;;2.06;100.00;97102.84;4937286;29;20031;-72
2021/12/04 10:22:25;;;;;;;1.48;1.45;;;;;;;3.12;100.00;97038.31;4936411;29;20118;-71
2021/12/04 10:33:39;;;;;;;1.58;1.48;;;;;;;3.14;100.00;97000.72;4935943;29;20503;-70
2021/12/04 10:36:04;;;;;;;2.25;2.15;;;;;;;3.28;100.00;96996.22;4933890;29;20024;-71
2021/12/04 10:38:37;;;;;;;1.38;1.30;;;;;;;3.37;100.00;97004.63;4927968;29;20027;-73
2021/12/04 10:41:03;;;;;;;4.32;2.38;;;;;;;3.47;100.00;96998.44;4935810;29;20035;-70
2021/12/04 10:43:30;;;;;;;2.35;2.15;;;;;;;3.46;100.00;96991.66;4935768;29;20038;-70
2021/12/04 10:45:59;;;;;;;5.75;3.17;;;;;;;3.47;100.00;96975.41;4935555;29;20046;-70
2021/12/04 10:48:29;;;;;;;2.72;2.30;;;;;;;3.50;100.00;96967.69;4935897;29;20043;-71
2021/12/04 10:51:04;;;;;;;3.78;2.22;;;;;;;3.57;100.00;96953.88;4935732;29;20032;-70
2021/12/04 10:53:36;;;;;;;2.08;1.98;;;;;;;3.61;100.00;96956.34;4935749;29;20079;-75
2021/12/04 11:25:21;;;;;;;2.67;1.70;;;;;;;4.32;100.00;96898.47;4935057;29;20024;-71
2021/12/04 11:46:41;;;;;;;3.88;3.28;;;;;;;4.59;100.00;96863.59;4934518;29;20028;-71
2021/12/04 11:49:10;;;;;;;3.40;3.15;;;;;;;4.65;100.00;96868.59;4934866;29;20032;-71
2021/12/04 11:51:52;;;;;;;3.40;2.33;;;;;;;4.69;100.00;96869.34;4934811;29;20024;-71
2021/12/04 11:54:17;;;;;;;2.90;2.70;;;;;;;4.64;100.00;96869.44;4934835;29;20059;-71
2021/12/04 11:56:44;;;;;;;3.15;2.95;;;;;;;4.74;100.00;96863.22;4934451;29;20115;-71
2021/12/04 11:59:09;;;;;;;3.00;2.72;;;;;;;4.69;100.00;96862.50;4934856;29;20027;-71
2021/12/04 12:01:38;;;;;;;1.02;1.02;;;;;;;4.79;100.00;96863.13;4934466;29;20468;-72
2021/12/04 12:04:09;;;;;;;1.50;1.50;;;;;;;4.77;100.00;96849.47;4933473;29;20035;-72
2021/12/04 12:06:37;;;;;;;2.08;1.88;;;;;;;4.84;100.00;96851.84;4932222;29;20030;-71
2021/12/04 12:09:14;;;;;;;4.13;3.72;;;;;;;4.82;100.00;96838.19;4926591;29;20079;-71
2021/12/04 12:11:50;;;;;;;3.00;2.33;;;;;;;4.94;100.00;96831.91;4938063;29;20054;-71
2021/12/04 12:14:20;;;;;;;2.63;1.85;;;;;;;4.91;100.00;96824.28;4938588;29;20504;-71
2021/12/04 12:16:50;;;;;;;1.98;1.88;;;;;;;4.90;100.00;96823.44;4938431;29;20027;-71
2021/12/04 12:19:42;;;;;;;3.10;2.90;;;;;;;5.02;100.00;96817.13;4938414;29;20536;-72
2021/12/04 12:22:26;;;;;;;2.17;1.98;;;;;;;5.09;100.00;96810.94;4938515;29;20042;-72
2021/12/04 12:36:12;;;;;;;2.03;1.83;;;;;;;5.45;100.00;96791.97;4914627;29;20028;-71
2021/12/04 12:39:00;;;;;;;1.95;1.77;;;;;;;5.44;100.00;96796.25;4923571;29;20040;-71
2021/12/04 12:41:37;;;;;;;2.15;2.05;;;;;;;5.55;100.00;96793.34;4938118;29;20400;-71
2021/12/04 12:44:05;;;;;;;3.20;2.13;;;;;;;5.71;100.00;96789.47;4938291;29;20054;-71
2021/12/04 12:46:40;;;;;;;1.70;1.60;;;;;;;5.72;100.00;96791.13;4937667;29;20032;-71
2021/12/04 12:49:37;;;;;;;1.98;1.88;;;;;;;5.72;100.00;96786.00;4937731;29;20490;-71
2021/12/04 12:52:05;;;;;;;1.42;1.33;;;;;;;5.78;100.00;96785.78;4934121;29;20058;-71
2021/12/04 12:54:33;;;;;;;2.67;1.63;;;;;;;5.74;100.00;96789.34;4937828;29;20031;-71
2021/12/04 12:57:02;;;;;;;8.00;2.22;;;;;;;5.85;100.00;96784.72;4937538;29;20437;-71
2021/12/04 13:11:35;;;;;;;2.03;1.92;;;;;;;5.86;100.00;96773.56;4937563;29;20028;-71
2021/12/04 13:14:24;;;;;;;2.35;2.25;;;;;;;6.37;100.00;96767.63;4937441;29;20549;-71
2021/12/04 13:16:57;;;;;;;3.67;1.73;;;;;;;6.67;100.00;96762.31;4937140;29;20469;-71
2021/12/04 13:19:24;;;;;;;1.48;1.38;;;;;;;6.84;100.00;96765.13;4937411;29;20110;-71
2021/12/04 13:21:52;;;;;;;0.80;0.80;;;;;;;7.07;100.00;96754.03;4936104;29;20028;-71
2021/12/04 13:24:21;;;;;;;2.58;1.65;;;;;;;7.29;100.00;96745.47;4937080;29;20110;-71
2021/12/04 13:26:51;;;;;;;1.38;1.27;;;;;;;7.34;100.00;96749.56;4937080;29;20023;-71
2021/12/04 13:29:19;;;;;;;1.77;1.42;;;;;;;7.41;100.00;96756.19;4937217;29;20106;-71
2021/12/04 13:31:45;;;;;;;3.92;1.05;;;;;;;7.43;100.00;96751.78;4937367;29;20114;-71
2021/12/04 13:34:13;;;;;;;0.93;0.93;;;;;;;7.51;100.00;96755.81;4937099;29;20043;-71
2021/12/04 13:36:44;;;;;;;1.23;0.95;;;;;;;7.79;100.00;96748.69;4934708;29;20051;-71
2021/12/04 13:39:13;;;;;;;0.80;0.80;;;;;;;7.87;100.00;96738.91;4929299;29;20031;-71
2021/12/04 13:41:41;;;;;;;0.90;0.73;;;;;;;7.89;100.00;96742.28;4937050;29;20027;-71
2021/12/04 13:44:11;;;;;;;0.50;0.50;;;;;;;8.00;100.00;96734.09;4936963;29;20024;-71
2021/12/04 13:46:45;;;;;;;0.90;0.90;;;;;;;8.11;100.00;96742.22;4936729;29;20404;-71
2021/12/04 13:49:13;;;;;;;1.35;1.05;;;;;;;8.22;100.00;96739.22;4936732;29;20032;-71
2021/12/04 13:51:39;;;;;;;3.70;1.60;;;;;;;8.21;100.00;96742.69;4935410;29;20020;-71
2021/12/04 13:54:05;;;;;;;0.93;0.93;;;;;;;8.24;100.00;96752.88;4936734;29;20026;-71
2021/12/04 13:56:31;;;;;;;1.00;1.00;;;;;;;8.12;100.00;96753.38;4951385;29;20449;-71
2021/12/04 13:59:00;;;;;;;0.40;0.40;;;;;;;8.23;100.00;96741.72;4936722;29;20493;-71
2021/12/04 14:01:28;;;;;;;3.60;1.30;;;;;;;8.34;100.00;96743.84;4936394;29;20031;-72
2021/12/04 14:03:58;;;;;;;0.93;0.93;;;;;;;8.27;100.00;96750.19;4936512;29;20023;-71
2021/12/04 14:06:25;;;;;;;0.75;0.75;;;;;;;8.39;100.00;96757.44;4934278;29;20027;-70
2021/12/04 14:09:03;;;;;;;0.40;0.40;;;;;;;8.36;100.00;96757.56;4928558;29;20028;-70
2021/12/04 14:11:33;;;;;;;0.93;0.55;;;;;;;8.35;100.00;96761.00;4936312;29;20393;-73
2021/12/04 14:14:08;;;;;;;1.75;1.02;;;;;;;8.31;100.00;96771.53;4936416;29;20028;-73
2021/12/04 14:16:33;;;;;;;1.52;1.27;;;;;;;8.36;100.00;96787.66;4936197;29;20032;-73
2021/12/04 14:18:58;;;;;;;0.50;0.50;;;;;;;8.22;100.00;96780.50;4936875;29;20031;-74
2021/12/04 14:21:24;;;;;;;0.77;0.77;;;;;;;8.17;100.00;96783.25;4936294;29;20469;-73
2021/12/04 14:23:49;;;;;;;0.40;0.40;;;;;;;8.10;100.00;96786.13;4936193;29;20481;-73
2021/12/04 14:26:16;;;;;;;0.40;0.40;;;;;;;8.14;100.00;96785.13;4935926;29;20035;-73
2021/12/04 14:28:44;;;;;;;0.60;0.60;;;;;;;8.15;100.00;96768.75;4935963;29;20111;-73
2021/12/04 14:31:15;;;;;;;0.40;0.40;;;;;;;8.04;100.00;96778.66;4935911;29;20465;-71
2021/12/04 14:33:42;;;;;;;1.70;1.60;;;;;;;7.98;100.00;96783.16;4935632;29;20079;-73
2021/12/04 14:36:07;;;;;;;0.40;0.40;;;;;;;7.91;100.00;96792.03;4932452;29;20083;-71
2021/12/04 14:38:33;;;;;;;1.13;1.10;;;;;;;7.92;100.00;96788.53;4927889;29;20423;-72
2021/12/04 14:41:06;;;;;;;1.05;0.90;;;;;;;7.96;100.00;96779.78;4934542;29;20051;-72
2021/12/04 14:43:35;;;;;;;1.75;1.17;;;;;;;7.92;100.00;96778.22;4935762;29;20032;-72
2021/12/04 14:46:03;;;;;;;0.57;0.57;;;;;;;7.91;100.00;96776.56;4934354;29;20031;-72
2021/12/04 14:48:35;;;;;;;0.60;0.60;;;;;;;7.94;100.00;96776.44;4935897;29;20032;-72
2021/12/04 14:51:16;;;;;;;4.25;2.38;;;;;;;7.96;100.00;96782.38;4935716;29;20039;-72
2021/12/04 14:53:53;;;;;;;0.40;0.40;;;;;;;7.97;100.00;96780.63;4935573;29;20102;-72
2021/12/04 14:56:20;;;;;;;0.63;0.63;;;;;;;7.93;100.00;96779.94;4935266;29;20118;-72
2021/12/04 14:58:46;;;;;;;0.40;0.40;;;;;;;7.98;100.00;96778.00;4935635;29;20027;-73
2021/12/04 15:01:16;;;;;;;0.75;0.60;;;;;;;7.97;100.00;96781.47;4935402;29;20032;-73
2021/12/04 15:04:00;;;;;;;1.27;0.90;;;;;;;8.04;100.00;96788.97;4933674;29;20031;-74
2021/12/04 15:06:28;;;;;;;0.50;0.50;;;;;;;8.11;100.00;96792.97;4927734;29;20044;-73
2021/12/04 15:09:08;;;;;;;0.35;0.35;;;;;;;8.01;100.00;96807.13;4924289;29;20393;-73
2021/12/04 15:11:36;;;;;;;0.50;0.50;;;;;;;8.04;100.00;96797.56;4916244;29;20489;-73
2021/12/04 15:14:10;;;;;;;0.35;0.35;;;;;;;8.02;100.00;96798.50;4915000;29;20039;-73
2021/12/04 15:16:59;;;;;;;0.40;0.40;;;;;;;8.00;100.00;96806.31;4916126;29;20020;-73
2021/12/04 15:19:42;;;;;;;0.55;0.55;;;;;;;7.94;100.00;96802.22;4916468;29;20083;-73
2021/12/04 15:22:22;;;;;;;0.50;0.50;;;;;;;7.98;100.00;96806.38;4916317;29;20036;-73
2021/12/04 15:24:48;;;;;;;;;;;;;;;7.92;100.00;96801.44;4914635;29;20024;-72
2021/12/04 15:27:18;;;;;;;0.40;0.40;;;;;;;7.93;100.00;96804.88;4923519;29;20401;-71
2021/12/04 15:29:49;;;;;;;0.95;0.95;;;;;;;8.05;100.00;96803.53;4916100;29;20107;-68
2021/12/04 15:32:19;;;;;;;0.60;0.60;;;;;;;8.12;100.00;96804.97;4916122;29;20032;-69
2021/12/04 15:34:53;;;;;;;;;;;;;;;8.18;100.00;96815.06;4916625;29;20103;-68
2021/12/04 15:37:38;;;;;;;0.55;0.55;;;;;;;8.13;100.00;96827.31;4923429;29;19911;-68
2021/12/04 15:40:22;;;;;;;0.55;0.55;;;;;;;8.06;100.00;96815.53;4933608;29;20093;-69
2021/12/04 15:43:07;;;;;;;0.30;0.30;;;;;;;8.17;100.00;96810.78;4934977;29;20024;-69
2021/12/04 15:45:47;;;;;;;0.93;0.93;;;;;;;7.98;100.00;96839.06;4934207;29;20031;-70
2021/12/04 15:51:26;;;;;;;0.73;0.73;;;;;;;8.12;100.00;96830.75;4935105;29;20241;-69
2021/12/04 15:53:58;;;;;;;0.47;0.47;;;;;;;8.08;100.00;96839.53;4934669;29;20039;-69
2021/12/04 15:56:43;;;;;;;0.30;0.30;;;;;;;7.97;100.00;96832.19;4926529;29;20028;-69
2021/12/04 15:59:35;;;;;;;1.40;1.30;;;;;;;7.77;100.00;96845.84;4934531;29;20062;-69
2021/12/04 16:02:14;;;;;;;0.63;0.63;;;;;;;7.91;100.00;96847.91;4933288;29;20051;-69
2021/12/04 16:04:40;;;;;;;0.85;0.85;;;;;;;7.95;100.00;96850.31;4934572;29;20143;-69
2021/12/04 16:07:06;;;;;;;0.50;0.50;;;;;;;8.24;97.62;96850.91;4929407;29;20046;-69
2021/12/04 16:09:40;;;;;;;0.45;0.45;;;;;;;8.33;98.12;96847.97;4929337;29;20083;-69
2021/12/04 16:12:11;;;;;;;0.40;0.40;;;;;;;8.33;97.30;96855.72;4934381;29;20047;-69
2021/12/04 16:14:42;;;;;;;0.40;0.40;;;;;;;8.34;97.00;96867.72;4934514;29;20027;-69
2021/12/04 16:17:10;;;;;;;0.40;0.40;;;;;;;8.28;96.12;96867.97;4934130;29;20384;-69
2021/12/04 16:19:43;;;;;;;0.52;0.50;;;;;;;8.28;96.07;96867.97;4934695;29;20032;-68
2021/12/04 16:22:10;;;;;;;0.40;0.40;;;;;;;8.23;95.97;96875.88;4933044;29;20023;-71
2021/12/04 16:24:39;;;;;;;0.38;0.38;;;;;;;8.33;94.63;96866.03;4932927;29;20028;-71
2021/12/04 16:27:16;;;;;;;0.30;0.30;;;;;;;8.40;94.59;96872.66;4925050;29;20057;-71
2021/12/04 16:30:04;;;;;;;0.47;0.47;;;;;;;8.26;96.02;96864.59;4934246;29;20489;-71
2021/12/04 16:32:36;;;;;;;0.55;0.55;;;;;;;8.30;97.08;96866.16;4934542;29;20035;-70
2021/12/04 16:37:49;;;;;;;0.50;0.50;;;;;;;8.07;99.88;96868.78;4926189;29;20020;-71
2021/12/04 16:40:23;;;;;;;0.70;0.70;;;;;;;7.98;100.00;96875.16;4933046;29;20031;-71
2021/12/04 16:43:01;;;;;;;0.85;0.85;;;;;;;8.04;100.00;96871.50;4934577;29;20090;-71
2021/12/04 16:45:29;;;;;;;1.08;1.08;;;;;;;7.86;100.00;96886.75;4934318;29;20030;-70
2021/12/04 16:47:56;;;;;;;2.60;2.40;;;;;;;7.81;100.00;96893.84;4933966;29;20039;-71
2021/12/04 16:50:24;;;;;;;0.90;0.90;;;;;;;7.67;100.00;96902.06;4934090;29;20086;-71
2021/12/04 16:58:22;;;;;;;0.73;0.73;;;;;;;7.53;100.00;96913.78;4924541;29;20187;-70
2021/12/04 17:00:51;;;;;;;0.57;0.57;;;;;;;7.59;100.00;96918.72;4937449;29;20506;-87
2021/12/04 17:03:17;;;;;;;0.70;0.70;;;;;;;7.52;100.00;96909.53;4936324;29;20031;-74
2021/12/04 17:05:45;;;;;;;1.55;0.60;;;;;;;7.64;100.00;96909.06;4934377;29;20034;-76
2021/12/04 17:08:11;;;;;;;0.50;0.50;;;;;;;7.80;100.00;96902.47;4928991;29;20020;-70
2021/12/04 17:10:37;;;;;;;1.20;1.10;;;;;;;7.93;98.62;96908.84;4937435;29;20030;-74
2021/12/04 17:13:04;;;;;;;0.30;0.30;;;;;;;7.96;98.67;96897.56;4937474;29;20038;-71
2021/12/04 17:15:30;;;;;;;0.40;0.40;;;;;;;8.04;97.25;96899.88;4937200;29;20035;-71
2021/12/04 17:17:57;;;;;;;0.55;0.55;;;;;;;7.98;98.92;96901.78;4937412;29;20024;-71
2021/12/04 17:20:24;;;;;;;1.05;0.90;;;;;;;8.04;99.21;96905.03;4935965;29;20034;-72
2021/12/04 17:22:51;;;;;;;0.40;0.40;;;;;;;8.08;96.61;96897.13;4937292;29;20035;-72
2021/12/04 17:25:18;;;;;;;0.70;0.70;;;;;;;8.11;98.45;96911.63;4933901;29;20023;-72
2021/12/04 17:27:44;;;;;;;1.63;0.70;;;;;;;8.03;97.28;96909.34;4928951;29;20055;-70
2021/12/04 17:30:11;;;;;;;0.75;0.68;;;;;;;8.02;98.29;96911.97;4936814;29;20055;-69
2021/12/04 17:32:38;;;;;;;0.40;0.40;;;;;;;8.07;96.09;96899.72;4937021;29;20024;-70
2021/12/04 17:35:05;;;;;;;3.83;0.60;;;;;;;7.99;97.86;96908.63;4935715;29;20032;-70
2021/12/04 17:37:31;;;;;;;0.50;0.50;;;;;;;7.97;97.06;96899.25;4928563;29;20075;-69
2021/12/04 17:39:58;;;;;;;0.40;0.40;;;;;;;8.08;96.94;96898.88;4934555;29;20425;-69
2021/12/04 17:42:24;;;;;;;0.60;0.60;;;;;;;8.01;94.91;96905.13;4936707;29;20401;-69
2021/12/04 17:44:50;;;;;;;0.68;0.68;;;;;;;8.06;94.46;96903.22;4936730;29;20032;-71
2021/12/04 17:47:18;;;;;;;1.48;0.55;;;;;;;8.03;94.05;96914.50;4936509;29;20027;-71
2021/12/04 17:49:44;;;;;;;0.50;0.50;;;;;;;8.10;93.09;96909.94;4936871;29;20110;-71
2021/12/04 17:52:09;;;;;;;0.50;0.50;;;;;;;8.16;92.55;96915.69;4936553;29;20094;-71
2021/12/04 17:54:34;;;;;;;1.02;0.93;;;;;;;8.09;92.49;96926.31;4935313;29;20082;-71
2021/12/04 17:57:00;;;;;;;2.00;0.88;;;;;;;8.14;91.37;96927.81;4926515;29;20490;-71
2021/12/04 17:59:29;;;;;;;3.53;2.53;;;;;;;8.09;91.04;96934.06;4936422;29;20465;-71
2021/12/04 18:02:15;;;;;;;0.80;0.70;;;;;;;8.06;90.98;96941.91;4936241;29;20485;-71
2021/12/04 18:04:46;;;;;;;0.88;0.88;;;;;;;8.12;88.87;96949.41;4936575;29;20056;-71
2021/12/04 18:07:19;;;;;;;0.40;0.40;;;;;;;8.18;89.12;96944.88;4930620;29;20028;-71
2021/12/04 18:09:46;;;;;;;0.50;0.50;;;;;;;8.19;89.29;96936.22;4931991;29;20040;-71
2021/12/04 18:12:16;;;;;;;0.43;0.43;;;;;;;8.13;89.75;96946.78;4932926;29;20030;-71
2021/12/04 18:14:46;;;;;;;0.40;0.40;;;;;;;8.14;89.59;96957.94;4932178;29;20035;-71
2021/12/04 18:17:11;;;;;;;0.50;0.50;;;;;;;8.08;92.24;96978.81;4936207;29;20087;-71
2021/12/04 18:19:39;;;;;;;0.60;0.60;;;;;;;7.99;90.68;96995.47;4936348;29;20032;-71
2021/12/04 18:22:04;;;;;;;0.40;0.40;;;;;;;7.80;88.29;97000.44;4934828;29;20107;-71
2021/12/04 18:24:30;;;;;;;0.47;0.47;;;;;;;7.57;86.09;97013.28;4935651;29;20147;-71
2021/12/04 18:26:57;;;;;;;0.32;0.32;;;;;;;7.39;86.88;97027.63;4925545;29;20391;-71
2021/12/04 18:29:23;;;;;;;0.85;0.85;;;;;;;7.22;86.96;97038.50;4936070;29;20038;-69
2021/12/04 18:31:50;;;;;;;0.70;0.57;;;;;;;7.21;86.82;97041.97;4936044;29;20102;-69
2021/12/04 18:34:16;;;;;;;0.60;0.60;;;;;;;7.17;87.12;97045.53;4936011;29;20094;-69
2021/12/04 18:36:43;;;;;;;0.40;0.40;;;;;;;7.09;85.50;97047.50;4933106;29;20023;-69
2021/12/04 18:39:11;;;;;;;0.50;0.50;;;;;;;7.06;86.51;97052.75;4927786;29;20095;-69
2021/12/04 18:41:37;;;;;;;0.50;0.50;;;;;;;7.02;86.09;97046.88;4935741;29;20035;-71
2021/12/04 18:44:05;;;;;;;0.57;0.57;;;;;;;6.90;86.06;97052.41;4935817;29;20489;-71
2021/12/04 18:46:32;;;;;;;1.05;1.05;;;;;;;6.91;86.37;97065.25;4935492;29;20038;-71
2021/12/04 18:48:59;;;;;;;0.45;0.45;;;;;;;6.83;84.97;97056.91;4935652;29;20541;-71
2021/12/04 18:51:26;;;;;;;0.40;0.40;;;;;;;6.80;85.39;97062.13;4935272;29;20118;-71
2021/12/04 18:53:59;;;;;;;0.50;0.50;;;;;;;6.75;85.81;97061.44;4934429;29;20035;-69
2021/12/04 18:56:28;;;;;;;0.70;0.70;;;;;;;6.70;86.07;97063.31;4916271;29;20020;-69
2021/12/04 18:59:08;;;;;;;0.50;0.50;;;;;;;6.72;85.68;97068.41;4916470;29;20548;-69
2021/12/04 19:01:36;;;;;;;0.70;0.70;;;;;;;6.68;86.05;97073.66;4923374;29;20024;-69
2021/12/04 19:04:04;;;;;;;0.40;0.40;;;;;;;6.65;84.89;97085.75;4916381;29;20102;-70
2021/12/04 19:06:36;;;;;;;0.40;0.40;;;;;;;6.62;85.47;97089.28;4920586;29;20027;-71
2021/12/04 19:09:07;;;;;;;0.50;0.50;;;;;;;6.72;85.83;97095.00;4939585;29;20482;-70
2021/12/04 19:11:41;;;;;;;0.55;0.55;;;;;;;6.63;85.46;97110.72;4915788;29;20548;-70
2021/12/04 19:14:12;;;;;;;0.45;0.45;;;;;;;6.59;85.26;97107.38;4915960;29;20020;-70
2021/12/04 19:16:39;;;;;;;0.40;0.40;;;;;;;6.64;84.88;97107.25;4916115;29;20099;-70
2021/12/04 19:19:08;;;;;;;0.90;0.90;;;;;;;6.56;84.58;97122.06;4915691;29;20470;-70
2021/12/04 19:21:45;;;;;;;0.50;0.50;;;;;;;6.59;85.69;97124.56;4914521;29;20495;-70
2021/12/04 19:24:14;;;;;;;0.40;0.40;;;;;;;6.61;84.97;97123.59;4915869;29;20063;-70
2021/12/04 19:26:43;;;;;;;0.50;0.50;;;;;;;6.54;85.08;97126.41;4915573;29;20465;-70
2021/12/04 19:29:16;;;;;;;0.93;0.93;;;;;;;6.52;85.66;97134.16;4915991;29;20035;-70
2021/12/04 19:31:44;;;;;;;0.40;0.40;;;;;;;6.56;85.48;97145.22;4916001;29;20106;-70
2021/12/04 19:34:31;;;;;;;0.60;0.60;;;;;;;6.48;84.69;97157.44;4915949;29;20567;-69
2021/12/04 19:48:45;;;;;;;0.85;0.85;;;;;;;6.40;86.00;97191.94;4915756;29;20078;-71
2021/12/04 19:51:13;;;;;;;0.52;0.52;;;;;;;6.49;85.63;97195.16;4922228;29;20565;-71
2021/12/04 19:56:49;;;;;;;0.65;0.65;;;;;;;6.36;85.70;97195.47;4915861;29;20031;-71
2021/12/04 19:59:22;;;;;;;1.05;0.88;;;;;;;6.42;85.08;97210.75;4914461;29;20486;-71
2021/12/04 20:15:35;;;;;;;0.60;0.60;;;;;;;5.70;94.78;97263.09;4934487;29;20020;-71
2021/12/04 20:18:04;;;;;;;0.47;0.47;;;;;;;5.61;96.25;97273.59;4933095;29;20489;-71
2021/12/04 20:20:34;;;;;;;0.50;0.50;;;;;;;5.48;96.94;97285.00;4928229;29;20107;-73
2021/12/04 20:23:03;;;;;;;0.73;0.73;;;;;;;5.47;98.47;97299.59;4924614;29;20078;-73
2021/12/04 20:25:35;;;;;;;0.50;0.45;;;;;;;5.39;96.75;97302.31;4934015;29;20450;-73
2021/12/04 20:28:04;;;;;;;0.88;0.88;;;;;;;5.40;97.13;97308.28;4926475;29;20054;-73
2021/12/04 20:30:51;;;;;;;0.50;0.50;;;;;;;5.43;97.11;97303.09;4928394;29;20111;-74
2021/12/04 21:08:41;;;;;;;0.57;0.57;;;;;;;5.16;92.45;97366.97;4929566;29;20034;-72
2021/12/04 21:51:44;;;;;;;0.60;0.60;;;;;;;4.87;88.28;97421.38;4936855;29;20039;-72
2021/12/04 21:54:10;;;;;;;0.50;0.50;;;;;;;4.82;88.11;97415.50;4936839;29;20035;-72
2021/12/04 22:10:13;;;;;;;0.95;0.95;;;;;;;4.74;86.45;97439.56;4935620;29;20119;-72
2021/12/04 22:12:54;;;;;;;1.35;1.05;;;;;;;4.78;85.70;97451.50;4930675;29;20031;-72
2021/12/04 22:18:06;;;;;;;0.70;0.70;;;;;;;4.72;86.17;97462.69;4936246;29;20051;-73
2021/12/04 22:20:55;;;;;;;0.50;0.50;;;;;;;4.74;86.64;97460.97;4936651;29;20087;-73
2021/12/04 22:58:41;;;;;;;0.60;0.60;;;;;;;4.07;87.37;97574.75;4915411;29;20043;-70
2021/12/04 23:01:29;;;;;;;0.50;0.50;;;;;;;3.75;87.64;97573.38;4935170;29;20042;-70
2021/12/04 23:12:26;;;;;;;0.50;0.50;;;;;;;3.02;90.24;97567.19;4929480;29;20050;-70
2021/12/04 23:14:56;;;;;;;0.50;0.50;;;;;;;3.20;89.22;97563.66;4927306;29;20035;-70
2021/12/04 23:17:43;;;;;;;0.52;0.52;;;;;;;3.20;89.22;97558.53;4935100;29;20031;-70
